Time;durP1;ratioP1;P1;durP2;ratioP2;P2;SDS_P1;SDS_P2;PMS_P1;PMS_P2;Temp;Humidity;BMP_temperature;BMP_pressure;BME280_temperature;BME280_humidity;BME280_pressure;Samples;Min_cycle;Max_cycle;Signal;HPM_P1;HPM_P2
2022/12/04 00:01:22;;;;;;;53.67;25.27;;;3.60;99.90;;;;;;5056809;28;19909;-64
2022/12/04 00:03:52;;;;;;;58.78;27.65;;;3.60;99.90;;;;;;5056329;28;20121;-64
2022/12/04 00:06:18;;;;;;;57.97;27.30;;;3.60;99.90;;;;;;5055528;28;20048;-64
2022/12/04 00:08:45;;;;;;;58.17;26.83;;;3.60;99.90;;;;;;5055673;28;20029;-65
2022/12/04 00:11:15;;;;;;;57.63;27.80;;;3.60;99.90;;;;;;5055690;28;20048;-65
2022/12/04 00:13:41;;;;;;;58.03;27.83;;;3.50;99.90;;;;;;5057299;28;20269;-62
2022/12/04 00:16:10;;;;;;;56.63;27.38;;;3.50;99.90;;;;;;5056401;28;20047;-64
2022/12/04 00:18:37;;;;;;;59.53;27.60;;;3.40;99.90;;;;;;5056860;28;20086;-65
2022/12/04 00:21:04;;;;;;;58.33;27.63;;;3.20;99.90;;;;;;5059700;28;20036;-63
2022/12/04 00:23:31;;;;;;;59.13;27.70;;;3.10;99.90;;;;;;5059534;28;20353;-64
2022/12/04 00:26:08;;;;;;;62.65;29.13;;;3.10;99.90;;;;;;5060202;28;20097;-63
2022/12/04 00:28:34;;;;;;;58.50;27.73;;;3.00;99.90;;;;;;5059960;28;20033;-64
2022/12/04 00:31:08;;;;;;;59.67;27.55;;;2.80;99.90;;;;;;5060206;28;20207;-64
2022/12/04 00:33:34;;;;;;;63.40;27.65;;;2.70;99.90;;;;;;5060240;28;20032;-64
2022/12/04 00:36:03;;;;;;;55.88;26.98;;;2.70;99.90;;;;;;5059831;28;20270;-64
2022/12/04 00:38:29;;;;;;;65.45;28.50;;;2.70;99.90;;;;;;5059218;28;20082;-63
2022/12/04 00:40:55;;;;;;;60.78;27.95;;;2.70;99.90;;;;;;5059713;28;20041;-63
2022/12/04 00:43:22;;;;;;;62.50;27.98;;;2.60;99.90;;;;;;5059204;28;20036;-64
2022/12/04 00:45:48;;;;;;;64.40;28.73;;;2.70;99.90;;;;;;5042319;28;20125;-63
2022/12/04 00:48:14;;;;;;;62.03;28.10;;;2.70;99.90;;;;;;5042529;28;20025;-63
2022/12/04 00:50:40;;;;;;;62.55;27.73;;;2.80;99.90;;;;;;5025870;28;20086;-63
2022/12/04 00:53:06;;;;;;;65.18;28.00;;;2.90;99.90;;;;;;5059491;28;20094;-65
2022/12/04 00:55:32;;;;;;;63.60;29.33;;;2.90;99.90;;;;;;5042195;28;20063;-64
2022/12/04 00:57:58;;;;;;;65.07;27.83;;;2.90;99.90;;;;;;5059019;28;20057;-64
2022/12/04 01:00:24;;;;;;;67.13;29.17;;;2.80;99.90;;;;;;5059694;28;20033;-64
2022/12/04 01:02:50;;;;;;;64.03;28.65;;;2.90;99.90;;;;;;5042380;28;20033;-64
2022/12/04 01:05:16;;;;;;;67.43;29.00;;;2.90;99.90;;;;;;5058358;28;20305;-64
2022/12/04 01:07:41;;;;;;;61.10;28.75;;;2.90;99.90;;;;;;5042250;28;20100;-64
2022/12/04 01:10:10;;;;;;;70.65;28.20;;;2.80;99.90;;;;;;5059161;28;20055;-64
2022/12/04 01:12:36;;;;;;;65.40;28.50;;;2.90;99.90;;;;;;5058231;28;20037;-64
2022/12/04 01:15:02;;;;;;;66.13;28.42;;;2.80;99.90;;;;;;5041852;28;20313;-64
2022/12/04 01:17:27;;;;;;;62.67;27.98;;;2.80;99.90;;;;;;5058503;28;20416;-64
2022/12/04 01:19:53;;;;;;;67.13;28.48;;;2.80;99.90;;;;;;5025788;28;20033;-65
2022/12/04 01:22:19;;;;;;;70.95;29.17;;;2.80;99.90;;;;;;5058232;28;20040;-65
2022/12/04 01:24:45;;;;;;;70.25;28.45;;;2.90;99.90;;;;;;5058156;28;20036;-64
2022/12/04 01:27:11;;;;;;;69.47;27.88;;;2.80;99.90;;;;;;5059076;28;20419;-64
2022/12/04 01:29:37;;;;;;;63.30;28.17;;;2.70;99.90;;;;;;5058694;28;20090;-64
2022/12/04 01:32:03;;;;;;;72.55;29.17;;;2.80;99.90;;;;;;5041198;28;20108;-64
2022/12/04 01:34:29;;;;;;;72.35;28.98;;;2.70;99.90;;;;;;5041418;28;20048;-64
2022/12/04 01:36:55;;;;;;;67.55;28.50;;;2.50;99.90;;;;;;5058093;28;20396;-64
2022/12/04 01:39:21;;;;;;;61.30;26.90;;;2.50;99.90;;;;;;5041352;28;20067;-64
2022/12/04 01:41:46;;;;;;;67.20;28.67;;;2.50;99.90;;;;;;5008393;28;20369;-64
2022/12/04 01:44:14;;;;;;;65.63;27.33;;;2.50;99.90;;;;;;5058649;28;20304;-62
2022/12/04 01:46:41;;;;;;;63.10;28.25;;;2.50;99.90;;;;;;5041077;28;20047;-63
2022/12/04 01:49:14;;;;;;;71.80;29.25;;;2.60;99.90;;;;;;5057778;28;20452;-63
2022/12/04 01:51:47;;;;;;;64.75;27.85;;;2.60;99.90;;;;;;5042203;28;20339;-63
2022/12/04 01:54:29;;;;;;;61.42;27.42;;;2.70;99.90;;;;;;5057882;28;20086;-62
2022/12/04 01:57:13;;;;;;;68.90;28.05;;;2.70;99.90;;;;;;5057921;28;20029;-63
2022/12/04 01:59:56;;;;;;;64.97;26.73;;;2.80;99.90;;;;;;5058121;28;20353;-63
2022/12/04 02:02:28;;;;;;;67.25;26.75;;;2.80;99.90;;;;;;5057692;28;20029;-63
2022/12/04 02:04:55;;;;;;;63.58;27.45;;;2.70;99.90;;;;;;5058221;28;20401;-62
2022/12/04 02:07:20;;;;;;;63.15;27.55;;;2.70;99.90;;;;;;5058560;28;20396;-64
2022/12/04 02:09:52;;;;;;;65.22;28.15;;;2.90;99.90;;;;;;5058200;28;20060;-63
2022/12/04 02:12:24;;;;;;;68.90;28.87;;;2.80;99.90;;;;;;5040471;28;20041;-64
2022/12/04 02:15:01;;;;;;;67.85;28.15;;;2.70;99.90;;;;;;5057968;28;20040;-63
2022/12/04 02:17:42;;;;;;;65.18;27.83;;;2.50;99.90;;;;;;5057172;28;20029;-64
2022/12/04 02:20:32;;;;;;;63.83;27.02;;;2.70;99.90;;;;;;5057446;28;20029;-64
2022/12/04 02:23:17;;;;;;;65.57;26.85;;;2.70;99.90;;;;;;5058444;28;20044;-64
2022/12/04 02:26:18;;;;;;;67.35;28.23;;;2.70;99.90;;;;;;5057728;28;20128;-63
2022/12/04 02:29:25;;;;;;;61.90;26.55;;;2.80;99.90;;;;;;5057820;28;20029;-63
2022/12/04 02:32:21;;;;;;;66.22;27.55;;;2.90;99.90;;;;;;5057455;28;20028;-64
2022/12/04 02:34:56;;;;;;;66.57;27.58;;;2.90;99.90;;;;;;5056897;28;20063;-64
2022/12/04 02:37:48;;;;;;;67.85;28.48;;;2.90;99.90;;;;;;5057595;28;20393;-64
2022/12/04 02:40:24;;;;;;;70.25;27.95;;;2.90;99.90;;;;;;5056782;28;20066;-63
2022/12/04 02:42:59;;;;;;;57.78;26.23;;;2.80;99.90;;;;;;5055903;28;20308;-64
2022/12/04 02:45:32;;;;;;;62.78;26.88;;;2.70;99.90;;;;;;5057288;28;20051;-64
2022/12/04 02:47:59;;;;;;;;;;;2.70;99.90;;;;;;5057273;28;20029;-64
2022/12/04 02:50:27;;;;;;;60.60;26.50;;;2.80;99.90;;;;;;5057860;28;19904;-63
2022/12/04 02:53:19;;;;;;;71.57;27.85;;;3.10;99.90;;;;;;5057606;28;20025;-63
2022/12/04 02:56:13;;;;;;;51.65;21.83;;;3.00;99.90;;;;;;5057233;28;20029;-63
2022/12/04 02:58:45;;;;;;;69.18;28.33;;;3.10;99.90;;;;;;5057347;28;20051;-63
2022/12/04 03:01:20;;;;;;;60.22;27.30;;;3.00;99.90;;;;;;5040100;28;20028;-62
2022/12/04 03:04:02;;;;;;;62.97;27.73;;;2.90;99.90;;;;;;5057109;28;20051;-63
2022/12/04 03:06:32;;;;;;;66.37;27.37;;;2.90;99.90;;;;;;5056869;28;20142;-63
2022/12/04 03:09:09;;;;;;;68.95;27.80;;;2.90;99.90;;;;;;5039686;28;20386;-63
2022/12/04 03:11:37;;;;;;;60.15;26.77;;;2.80;99.90;;;;;;5057043;28;20115;-64
2022/12/04 03:14:19;;;;;;;70.10;29.30;;;2.80;99.90;;;;;;5056153;28;20025;-62
2022/12/04 03:16:47;;;;;;;63.17;28.38;;;2.80;99.90;;;;;;5056289;28;20120;-63
2022/12/04 03:19:20;;;;;;;61.90;27.38;;;2.80;99.90;;;;;;5056216;28;20304;-63
2022/12/04 03:21:53;;;;;;;71.35;29.23;;;2.90;99.90;;;;;;5056903;28;20035;-63
2022/12/04 03:24:44;;;;;;;58.58;27.02;;;2.90;99.90;;;;;;5056122;28;20083;-63
2022/12/04 03:27:23;;;;;;;57.58;27.15;;;2.80;99.90;;;;;;5056975;28;20036;-63
2022/12/04 03:29:53;;;;;;;64.97;27.27;;;2.90;99.90;;;;;;5056278;28;20110;-63
2022/12/04 03:32:27;;;;;;;66.18;27.67;;;2.90;99.90;;;;;;5056092;28;20304;-62
2022/12/04 03:35:05;;;;;;;64.95;27.25;;;2.90;99.90;;;;;;5056030;28;20357;-63
2022/12/04 03:37:43;;;;;;;63.60;28.70;;;3.00;99.90;;;;;;5056714;28;20033;-64
2022/12/04 03:40:16;;;;;;;63.88;27.75;;;3.00;99.90;;;;;;5056342;28;20064;-63
2022/12/04 03:42:44;;;;;;;;;;;3.00;99.90;;;;;;5056203;28;20029;-64
2022/12/04 03:45:27;;;;;;;62.65;27.15;;;3.10;99.90;;;;;;5039210;28;19909;-62
2022/12/04 03:48:00;;;;;;;66.13;28.08;;;3.10;99.90;;;;;;5056754;28;20065;-63
2022/12/04 03:50:37;;;;;;;71.13;29.42;;;2.90;99.90;;;;;;5055942;28;20033;-63
2022/12/04 03:53:31;;;;;;;60.70;27.35;;;2.90;99.90;;;;;;5058236;28;20088;-64
2022/12/04 03:56:15;;;;;;;60.03;27.20;;;3.00;99.90;;;;;;5057930;28;20320;-63
2022/12/04 03:58:47;;;;;;;64.53;27.77;;;2.90;99.90;;;;;;5060671;28;20021;-63
2022/12/04 04:01:16;;;;;;;62.17;27.73;;;2.80;99.90;;;;;;5059803;28;20035;-63
2022/12/04 04:03:49;;;;;;;61.03;27.30;;;2.70;99.90;;;;;;5059626;28;20064;-63
2022/12/04 04:06:23;;;;;;;63.25;27.98;;;2.60;99.90;;;;;;5059414;28;20064;-64
2022/12/04 04:08:55;;;;;;;62.83;27.38;;;2.60;99.90;;;;;;5059607;28;20036;-63
2022/12/04 04:11:44;;;;;;;63.60;27.77;;;2.70;99.90;;;;;;5060218;28;20139;-63
2022/12/04 04:25:42;;;;;;;62.30;28.27;;;2.60;99.90;;;;;;5060344;28;20025;-64
2022/12/04 04:28:32;;;;;;;60.00;26.27;;;2.70;99.90;;;;;;5060314;28;20075;-63
2022/12/04 04:31:04;;;;;;;64.70;27.90;;;2.70;99.90;;;;;;5059392;28;20033;-64
2022/12/04 04:33:35;;;;;;;58.85;25.73;;;2.70;99.90;;;;;;5059559;28;20024;-64
2022/12/04 04:36:14;;;;;;;61.97;27.98;;;2.60;99.90;;;;;;5059206;28;20033;-64
2022/12/04 04:38:54;;;;;;;64.28;27.48;;;2.50;99.90;;;;;;5058972;28;20021;-63
2022/12/04 04:41:33;;;;;;;62.25;27.40;;;2.60;99.90;;;;;;5059051;28;20033;-64
2022/12/04 04:44:11;;;;;;;62.50;27.10;;;2.70;99.90;;;;;;5058755;28;20410;-63
2022/12/04 04:46:42;;;;;;;63.60;26.98;;;2.60;99.90;;;;;;5058974;28;20388;-63
2022/12/04 04:49:11;;;;;;;59.05;27.15;;;2.80;99.90;;;;;;5058801;28;20300;-64
2022/12/04 04:51:37;;;;;;;60.53;27.02;;;2.90;99.90;;;;;;5058755;28;20059;-64
2022/12/04 04:54:09;;;;;;;58.42;26.95;;;2.90;99.90;;;;;;5025723;28;20029;-64
2022/12/04 04:56:39;;;;;;;;;;;3.00;99.90;;;;;;5042678;28;20407;-64
2022/12/04 04:59:05;;;;;;;59.50;26.23;;;2.90;99.90;;;;;;5042389;28;20291;-64
2022/12/04 05:01:31;;;;;;;60.03;27.33;;;2.90;99.90;;;;;;5042503;28;20032;-64
2022/12/04 05:03:56;;;;;;;53.83;26.70;;;3.00;99.90;;;;;;5058893;28;20047;-64
2022/12/04 05:06:22;;;;;;;58.60;27.50;;;2.90;99.90;;;;;;5058939;28;20041;-64
2022/12/04 05:08:48;;;;;;;56.35;26.42;;;2.80;99.90;;;;;;5042435;28;20033;-64
2022/12/04 05:11:15;;;;;;;62.92;27.35;;;2.80;99.90;;;;;;5042608;28;20033;-64
2022/12/04 05:13:41;;;;;;;60.15;28.73;;;2.60;99.90;;;;;;5042200;28;20032;-64
2022/12/04 05:16:11;;;;;;;58.70;26.70;;;2.60;99.90;;;;;;5059460;28;20035;-64
2022/12/04 05:18:37;;;;;;;53.90;25.85;;;2.70;99.90;;;;;;5059260;28;20397;-63
2022/12/04 05:21:19;;;;;;;57.15;26.20;;;2.60;99.90;;;;;;5058645;28;20120;-63
2022/12/04 05:23:45;;;;;;;57.08;26.98;;;2.80;99.90;;;;;;5059230;28;20098;-64
2022/12/04 05:26:11;;;;;;;59.10;28.23;;;2.80;99.90;;;;;;5058976;28;20343;-63
2022/12/04 05:28:39;;;;;;;56.08;27.55;;;2.90;99.90;;;;;;5041345;28;20036;-65
2022/12/04 05:31:05;;;;;;;57.45;27.65;;;2.80;99.90;;;;;;5058698;28;20044;-64
2022/12/04 05:33:31;;;;;;;58.22;26.55;;;2.80;99.90;;;;;;5041434;28;20025;-64
2022/12/04 05:35:58;;;;;;;60.33;27.58;;;2.90;99.90;;;;;;5057953;28;20116;-64
2022/12/04 05:38:24;;;;;;;55.47;25.95;;;3.00;99.90;;;;;;5057968;28;20037;-64
2022/12/04 05:40:50;;;;;;;58.83;27.10;;;3.00;99.90;;;;;;5057899;28;20270;-64
2022/12/04 05:43:15;;;;;;;59.67;27.45;;;3.00;99.90;;;;;;5058011;28;20033;-64
2022/12/04 05:45:41;;;;;;;60.83;27.88;;;3.20;99.90;;;;;;5058914;28;20040;-64
2022/12/04 05:48:07;;;;;;;60.40;28.55;;;3.30;99.90;;;;;;5041221;28;20402;-64
2022/12/04 05:50:33;;;;;;;58.33;26.90;;;3.10;99.90;;;;;;5058386;28;20037;-64
2022/12/04 05:52:58;;;;;;;56.30;27.17;;;3.00;99.90;;;;;;5041094;28;20123;-64
2022/12/04 05:55:24;;;;;;;59.08;26.92;;;2.90;99.90;;;;;;5057654;28;20040;-64
2022/12/04 05:57:50;;;;;;;55.30;26.23;;;2.80;99.90;;;;;;5057418;28;20033;-64
2022/12/04 06:00:16;;;;;;;55.42;27.20;;;2.80;99.90;;;;;;5041010;28;20036;-63
2022/12/04 06:02:42;;;;;;;59.22;28.33;;;2.90;99.90;;;;;;5057457;28;20033;-64
2022/12/04 06:05:08;;;;;;;54.85;27.50;;;2.90;99.90;;;;;;5057189;28;20033;-63
2022/12/04 06:07:34;;;;;;;62.22;27.80;;;3.10;99.90;;;;;;5040713;28;20032;-63
2022/12/04 06:10:00;;;;;;;59.00;27.13;;;3.20;99.90;;;;;;5058438;28;20385;-63
2022/12/04 06:12:26;;;;;;;55.13;27.52;;;3.20;99.90;;;;;;5040567;28;20041;-63
2022/12/04 06:14:52;;;;;;;58.20;27.40;;;3.10;99.90;;;;;;5058306;28;20025;-63
2022/12/04 06:17:17;;;;;;;55.33;26.95;;;3.10;99.90;;;;;;5058207;28;20068;-63
2022/12/04 06:19:43;;;;;;;59.05;28.30;;;3.10;99.90;;;;;;5057782;28;20025;-64
2022/12/04 06:22:09;;;;;;;60.67;29.25;;;3.10;99.90;;;;;;5040692;28;20089;-63
2022/12/04 06:24:35;;;;;;;57.83;27.52;;;3.00;99.90;;;;;;5056894;28;20033;-63
2022/12/04 06:27:00;;;;;;;59.22;27.52;;;3.00;99.90;;;;;;5057604;28;20037;-63
2022/12/04 06:29:26;;;;;;;57.83;27.55;;;2.90;99.90;;;;;;5040376;28;20043;-63
2022/12/04 06:31:52;;;;;;;59.70;27.98;;;3.00;99.90;;;;;;5057563;28;20086;-63
2022/12/04 06:34:18;;;;;;;59.08;28.17;;;3.10;99.90;;;;;;5040238;28;20055;-63
2022/12/04 06:36:44;;;;;;;60.17;29.23;;;2.90;99.90;;;;;;5056755;28;20029;-64
2022/12/04 06:39:10;;;;;;;56.70;27.52;;;2.90;99.90;;;;;;5024049;28;20120;-63
2022/12/04 06:41:36;;;;;;;58.70;28.23;;;2.80;99.90;;;;;;5057322;28;20068;-64
2022/12/04 06:44:02;;;;;;;58.92;27.35;;;2.70;99.90;;;;;;5057832;28;20043;-63
2022/12/04 06:46:31;;;;;;;60.92;28.17;;;2.70;99.90;;;;;;5056541;28;20389;-63
2022/12/04 06:48:59;;;;;;;61.33;28.75;;;2.50;99.90;;;;;;5057300;28;20072;-63
2022/12/04 06:51:29;;;;;;;58.65;27.85;;;2.50;99.90;;;;;;5056551;28;20408;-63
2022/12/04 06:53:55;;;;;;;62.58;29.65;;;2.60;99.90;;;;;;5057307;28;20040;-63
2022/12/04 06:56:26;;;;;;;63.78;28.73;;;2.70;99.90;;;;;;5057158;28;20094;-62
2022/12/04 06:58:54;;;;;;;55.80;27.95;;;2.70;99.90;;;;;;5057132;28;20083;-63
2022/12/04 07:01:22;;;;;;;59.92;28.02;;;2.70;99.90;;;;;;5057243;28;20029;-63
2022/12/04 07:03:49;;;;;;;57.58;28.98;;;2.60;99.90;;;;;;5057376;28;20025;-64
2022/12/04 07:06:21;;;;;;;63.03;29.25;;;2.50;99.90;;;;;;5040054;28;20055;-63
2022/12/04 07:08:53;;;;;;;66.53;30.65;;;2.60;99.90;;;;;;5057575;28;20040;-63
2022/12/04 07:11:20;;;;;;;;;;;2.80;99.90;;;;;;5057210;28;20122;-64
2022/12/04 07:13:47;;;;;;;60.60;27.55;;;2.80;99.90;;;;;;5057058;28;19904;-63
2022/12/04 07:16:15;;;;;;;61.05;29.25;;;2.90;99.90;;;;;;5057031;28;20032;-64
2022/12/04 07:18:41;;;;;;;61.53;29.42;;;2.80;99.90;;;;;;5057039;28;20136;-64
2022/12/04 07:21:09;;;;;;;59.50;28.38;;;2.80;99.90;;;;;;5056379;28;20060;-64
2022/12/04 07:23:36;;;;;;;65.35;30.85;;;3.00;99.90;;;;;;5056289;28;20029;-65
2022/12/04 07:26:10;;;;;;;61.70;28.92;;;3.00;99.90;;;;;;5056894;28;20140;-64
2022/12/04 07:28:37;;;;;;;66.63;30.65;;;2.90;99.90;;;;;;5062160;28;20098;-63
2022/12/04 07:31:11;;;;;;;56.70;28.08;;;2.90;99.90;;;;;;5062792;28;20274;-64
2022/12/04 07:33:37;;;;;;;61.78;28.45;;;2.90;99.90;;;;;;5062821;28;20033;-64
2022/12/04 07:36:05;;;;;;;56.67;29.02;;;2.80;99.90;;;;;;5046367;28;20033;-64
2022/12/04 07:38:33;;;;;;;61.10;29.55;;;2.90;99.90;;;;;;5063403;28;20087;-63
2022/12/04 07:41:00;;;;;;;62.05;28.50;;;2.80;99.90;;;;;;5063545;28;20025;-63
2022/12/04 07:43:28;;;;;;;60.10;30.33;;;2.60;99.90;;;;;;5046335;28;20033;-63
2022/12/04 07:45:57;;;;;;;60.35;28.60;;;2.60;99.90;;;;;;5062713;28;20108;-64
2022/12/04 07:48:23;;;;;;;63.05;29.00;;;2.70;99.90;;;;;;5062464;28;20435;-64
2022/12/04 07:50:48;;;;;;;58.92;30.13;;;2.70;99.90;;;;;;5045847;28;20058;-64
2022/12/04 07:53:14;;;;;;;61.53;30.52;;;2.70;99.90;;;;;;5063287;28;20044;-64
2022/12/04 07:55:41;;;;;;;61.30;29.25;;;2.80;99.90;;;;;;5045995;28;20025;-62
2022/12/04 07:58:06;;;;;;;61.88;29.40;;;2.70;99.90;;;;;;5046130;28;20040;-63
2022/12/04 08:00:32;;;;;;;64.20;29.48;;;2.60;99.90;;;;;;5062343;28;20037;-62
2022/12/04 08:02:58;;;;;;;62.60;29.98;;;2.50;99.90;;;;;;5062149;28;20063;-63
2022/12/04 08:05:24;;;;;;;63.85;30.60;;;2.50;99.90;;;;;;5045521;28;20060;-62
2022/12/04 08:07:50;;;;;;;63.45;31.45;;;2.60;99.90;;;;;;5062273;28;20105;-64
2022/12/04 08:10:17;;;;;;;64.95;30.00;;;2.90;99.90;;;;;;5045797;28;20061;-63
2022/12/04 08:12:43;;;;;;;60.67;30.00;;;2.90;99.90;;;;;;5062297;28;20033;-63
2022/12/04 08:15:09;;;;;;;63.38;30.98;;;2.90;99.90;;;;;;5029258;28;20337;-64
2022/12/04 08:17:34;;;;;;;61.17;29.88;;;2.80;99.90;;;;;;5045874;28;20352;-63
2022/12/04 08:20:00;;;;;;;61.45;30.55;;;2.70;99.90;;;;;;5063134;28;20033;-62
2022/12/04 08:22:26;;;;;;;64.13;31.10;;;2.70;99.90;;;;;;5062451;28;20051;-64
2022/12/04 08:24:52;;;;;;;62.17;30.38;;;2.70;99.90;;;;;;5045519;28;20312;-63
2022/12/04 08:27:18;;;;;;;63.00;30.67;;;2.70;99.90;;;;;;5062608;28;20101;-65
2022/12/04 08:29:43;;;;;;;63.17;28.92;;;2.80;99.90;;;;;;5045940;28;20025;-64
2022/12/04 08:32:09;;;;;;;65.13;31.42;;;2.90;99.90;;;;;;5045776;28;20037;-65
2022/12/04 08:34:35;;;;;;;62.42;30.33;;;2.70;99.90;;;;;;5013223;28;20316;-63
2022/12/04 08:37:01;;;;;;;62.80;31.02;;;2.80;99.90;;;;;;5063165;28;20057;-62
2022/12/04 08:39:27;;;;;;;62.00;30.30;;;2.90;99.90;;;;;;5042783;28;20048;-65
2022/12/04 08:41:53;;;;;;;62.92;30.35;;;3.00;99.90;;;;;;5042473;28;20029;-66
2022/12/04 08:44:18;;;;;;;61.72;30.77;;;3.00;99.90;;;;;;5058917;28;20028;-65
2022/12/04 08:46:44;;;;;;;63.13;31.30;;;3.10;99.90;;;;;;5059350;28;20029;-65
2022/12/04 08:49:10;;;;;;;62.67;30.52;;;3.10;99.90;;;;;;5059774;28;20025;-64
2022/12/04 08:51:36;;;;;;;60.78;29.45;;;3.10;99.90;;;;;;5058675;28;20179;-64
2022/12/04 08:54:07;;;;;;;59.55;30.95;;;3.30;99.90;;;;;;5042227;28;20286;-64
2022/12/04 08:56:34;;;;;;;59.72;31.50;;;3.50;99.90;;;;;;5059613;28;20025;-65
2022/12/04 08:59:00;;;;;;;62.97;30.63;;;3.50;99.90;;;;;;5058756;28;20025;-62
2022/12/04 09:01:27;;;;;;;63.55;30.73;;;3.30;99.90;;;;;;5058610;28;20098;-63
2022/12/04 09:03:53;;;;;;;68.70;31.35;;;3.30;99.90;;;;;;5058702;28;20041;-65
2022/12/04 09:06:19;;;;;;;64.97;31.27;;;3.50;99.90;;;;;;5041888;28;20416;-65
2022/12/04 09:08:46;;;;;;;61.75;30.63;;;3.60;99.90;;;;;;5059328;28;20061;-63
2022/12/04 09:11:15;;;;;;;62.20;30.70;;;3.30;99.90;;;;;;5059355;28;20115;-65
2022/12/04 09:13:42;;;;;;;64.40;30.80;;;3.20;99.90;;;;;;5058796;28;20035;-65
2022/12/04 09:16:10;;;;;;;65.18;32.13;;;3.30;99.90;;;;;;5059292;28;20320;-63
2022/12/04 09:18:37;;;;;;;62.25;31.10;;;3.50;99.90;;;;;;5059500;28;20354;-63
2022/12/04 09:21:05;;;;;;;65.90;31.70;;;3.60;99.90;;;;;;5058986;28;20072;-63
2022/12/04 09:23:32;;;;;;;62.03;31.20;;;3.60;99.90;;;;;;5041668;28;20052;-63
2022/12/04 09:25:57;;;;;;;69.22;32.53;;;3.60;99.90;;;;;;5058986;28;20052;-64
2022/12/04 09:28:23;;;;;;;68.00;32.40;;;3.70;99.90;;;;;;5025458;28;20052;-64
2022/12/04 09:31:00;;;;;;;62.53;31.33;;;3.60;99.90;;;;;;5058809;28;20033;-65
2022/12/04 09:33:26;;;;;;;63.30;31.27;;;3.60;99.90;;;;;;5058821;28;20021;-64
2022/12/04 09:35:53;;;;;;;59.33;30.00;;;3.50;99.90;;;;;;5058799;28;20021;-64
2022/12/04 09:38:19;;;;;;;63.53;30.70;;;3.50;99.90;;;;;;5058921;28;20036;-64
2022/12/04 09:40:51;;;;;;;60.80;30.30;;;3.50;99.90;;;;;;5059068;28;20033;-64
2022/12/04 09:43:26;;;;;;;61.67;31.80;;;3.60;99.90;;;;;;5058673;28;20024;-64
2022/12/04 09:45:57;;;;;;;64.63;32.85;;;3.50;99.90;;;;;;5057768;28;20087;-64
2022/12/04 09:48:33;;;;;;;61.13;31.45;;;3.70;99.90;;;;;;5058762;28;20033;-64
2022/12/04 09:51:01;;;;;;;62.33;31.85;;;3.80;99.90;;;;;;5057193;28;20025;-64
2022/12/04 09:53:49;;;;;;;65.05;32.22;;;4.00;99.90;;;;;;5057519;28;20064;-64
2022/12/04 09:56:18;;;;;;;63.00;30.60;;;4.10;99.90;;;;;;5058331;28;20090;-64
2022/12/04 09:59:07;;;;;;;64.75;32.17;;;4.20;99.90;;;;;;5040911;28;20025;-64
2022/12/04 10:01:46;;;;;;;59.70;30.10;;;4.30;99.90;;;;;;5058430;28;20033;-64
2022/12/04 10:04:13;;;;;;;60.00;30.90;;;4.20;99.90;;;;;;5059039;28;20036;-64
2022/12/04 10:07:02;;;;;;;58.90;30.58;;;4.50;99.90;;;;;;5040622;28;20061;-64
2022/12/04 10:09:52;;;;;;;57.25;31.02;;;4.40;99.90;;;;;;5041427;28;20262;-65
2022/12/04 10:12:27;;;;;;;56.97;29.42;;;4.30;99.90;;;;;;5057351;28;20426;-64
2022/12/04 10:15:14;;;;;;;58.85;30.27;;;4.30;99.90;;;;;;5058226;28;20266;-64
2022/12/04 10:18:03;;;;;;;53.60;28.65;;;4.20;99.90;;;;;;5057409;28;20086;-64
2022/12/04 10:21:06;;;;;;;52.65;29.00;;;4.20;99.90;;;;;;5040562;28;20036;-64
2022/12/04 10:24:29;;;;;;;55.25;28.55;;;4.10;99.90;;;;;;5057180;28;20024;-64
2022/12/04 10:27:00;;;;;;;53.78;28.17;;;4.00;99.90;;;;;;5020198;28;20393;-64
2022/12/04 10:29:34;;;;;;;52.42;27.15;;;4.10;99.90;;;;;;5036426;28;20037;-64
2022/12/04 10:32:17;;;;;;;55.63;28.80;;;4.20;99.90;;;;;;5051015;28;20132;-64
2022/12/04 10:34:44;;;;;;;;;;;4.10;99.90;;;;;;5056962;28;20112;-64
2022/12/04 10:37:14;;;;;;;50.70;26.48;;;3.90;99.90;;;;;;5040344;28;19909;-64
2022/12/04 10:40:24;;;;;;;52.72;28.20;;;4.10;99.90;;;;;;5057042;28;20361;-65
2022/12/04 10:42:52;;;;;;;50.85;26.42;;;4.10;99.90;;;;;;5019369;28;20059;-65
2022/12/04 10:45:19;;;;;;;48.38;27.10;;;4.20;99.90;;;;;;5035036;28;20029;-65
2022/12/04 10:47:48;;;;;;;53.88;26.65;;;4.20;99.90;;;;;;5056442;28;20029;-65
2022/12/04 10:50:18;;;;;;;44.95;24.70;;;4.20;99.90;;;;;;5056736;28;20082;-65
2022/12/04 10:52:44;;;;;;;48.75;25.55;;;4.20;99.90;;;;;;5056371;28;20086;-64
2022/12/04 10:55:11;;;;;;;41.05;23.35;;;4.20;99.90;;;;;;5039859;28;20054;-64
2022/12/04 10:57:42;;;;;;;43.72;23.92;;;4.30;99.90;;;;;;5023819;28;20041;-64
2022/12/04 11:00:32;;;;;;;31.23;17.27;;;4.20;99.90;;;;;;5057180;28;20033;-63
2022/12/04 11:03:01;;;;;;;40.42;23.02;;;4.20;99.90;;;;;;5055747;28;20375;-64
2022/12/04 11:05:54;;;;;;;39.53;21.33;;;4.10;99.90;;;;;;5056337;28;20259;-64
2022/12/04 11:08:36;;;;;;;28.35;16.42;;;4.20;99.90;;;;;;5056270;28;20029;-64
2022/12/04 11:11:07;;;;;;;30.47;16.90;;;4.20;99.90;;;;;;5058087;28;20035;-64
2022/12/04 11:13:34;;;;;;;31.08;17.02;;;4.30;99.90;;;;;;5057206;28;20294;-64
2022/12/04 11:16:00;;;;;;;28.38;17.67;;;4.40;99.90;;;;;;5039724;28;20029;-63
2022/12/04 11:18:29;;;;;;;28.92;16.50;;;4.10;99.90;;;;;;5056336;28;20086;-63
2022/12/04 11:21:13;;;;;;;31.40;17.77;;;4.00;99.90;;;;;;5056979;28;20086;-63
2022/12/04 11:23:45;;;;;;;26.42;15.63;;;4.20;99.90;;;;;;5039619;28;20115;-64
2022/12/04 11:26:12;;;;;;;30.17;16.67;;;4.10;99.90;;;;;;5056007;28;20032;-64
2022/12/04 11:28:42;;;;;;;29.33;17.17;;;4.20;99.90;;;;;;5056715;28;20340;-64
2022/12/04 11:31:14;;;;;;;29.17;17.60;;;4.20;99.90;;;;;;5056596;28;20284;-63
2022/12/04 11:33:48;;;;;;;29.17;17.48;;;4.30;99.90;;;;;;5039890;28;20124;-64
2022/12/04 11:36:36;;;;;;;28.15;18.35;;;4.20;99.90;;;;;;5056324;28;20021;-63
2022/12/04 11:39:19;;;;;;;28.55;17.70;;;4.10;99.90;;;;;;5056040;28;20126;-64
2022/12/04 11:41:45;;;;;;;29.15;18.17;;;4.20;99.90;;;;;;5056027;28;20033;-62
2022/12/04 11:44:23;;;;;;;29.25;18.95;;;4.30;99.90;;;;;;5056079;28;20374;-64
2022/12/04 11:46:54;;;;;;;31.42;19.17;;;4.10;99.90;;;;;;5055886;28;20037;-63
2022/12/04 11:49:28;;;;;;;33.90;20.20;;;4.10;99.90;;;;;;5055717;28;20021;-64
2022/12/04 11:52:21;;;;;;;33.85;20.63;;;4.10;99.90;;;;;;5056661;28;20347;-64
2022/12/04 11:55:01;;;;;;;35.47;21.80;;;3.90;99.90;;;;;;5057090;28;20125;-63
2022/12/04 11:57:47;;;;;;;38.97;21.45;;;4.00;99.90;;;;;;5055842;28;20395;-63
2022/12/04 12:00:21;;;;;;;37.97;22.63;;;4.20;99.90;;;;;;5055942;28;20025;-64
2022/12/04 12:03:12;;;;;;;38.08;23.33;;;4.30;99.90;;;;;;5056991;28;20032;-64
2022/12/04 12:05:57;;;;;;;37.22;22.45;;;4.10;99.90;;;;;;5056519;28;20446;-64
2022/12/04 12:09:12;;;;;;;34.42;21.75;;;4.20;99.90;;;;;;5055719;28;20037;-63
2022/12/04 12:12:05;;;;;;;34.35;20.38;;;4.30;99.90;;;;;;5018532;28;20329;-64
2022/12/04 12:14:40;;;;;;;;;;;4.10;99.90;;;;;;5027767;28;20161;-64
2022/12/04 12:17:27;;;;;;;31.58;18.63;;;4.10;99.90;;;;;;5048312;28;20022;-66
2022/12/04 12:20:19;;;;;;;29.58;17.88;;;4.00;99.90;;;;;;5060579;28;20025;-65
2022/12/04 12:22:51;;;;;;;29.53;18.50;;;4.10;99.90;;;;;;5059585;28;20136;-65
2022/12/04 12:25:33;;;;;;;35.08;18.60;;;4.00;99.90;;;;;;5060389;28;20037;-65
2022/12/04 12:28:30;;;;;;;31.10;18.52;;;4.10;99.90;;;;;;5042681;28;20419;-64
2022/12/04 12:31:24;;;;;;;30.75;17.30;;;4.20;99.90;;;;;;5059219;28;20094;-65
2022/12/04 12:34:04;;;;;;;29.05;17.35;;;4.10;99.90;;;;;;5059371;28;20083;-64
2022/12/04 12:36:37;;;;;;;29.20;17.15;;;3.90;99.90;;;;;;5059961;28;20025;-64
2022/12/04 12:39:15;;;;;;;30.77;17.02;;;3.80;99.90;;;;;;5042503;28;20152;-64
2022/12/04 12:41:52;;;;;;;32.80;18.00;;;3.70;99.90;;;;;;5042397;28;20048;-65
2022/12/04 12:44:34;;;;;;;28.20;16.75;;;3.60;99.90;;;;;;5059360;28;20033;-65
2022/12/04 12:47:06;;;;;;;31.10;16.65;;;3.70;99.90;;;;;;5059758;28;20054;-63
2022/12/04 12:49:50;;;;;;;29.85;17.00;;;3.90;99.90;;;;;;5060017;28;20060;-61
2022/12/04 12:52:31;;;;;;;28.63;17.17;;;3.90;99.90;;;;;;5059430;28;20036;-68
2022/12/04 12:55:16;;;;;;;28.42;17.08;;;4.10;99.90;;;;;;5042525;28;20128;-69
2022/12/04 12:57:52;;;;;;;28.77;17.10;;;4.30;99.90;;;;;;5042561;28;20029;-68
2022/12/04 13:00:22;;;;;;;29.13;17.08;;;4.30;99.90;;;;;;5059454;28;20393;-68
2022/12/04 13:02:57;;;;;;;30.40;17.27;;;4.10;99.90;;;;;;5058670;28;20308;-68
2022/12/04 13:05:35;;;;;;;32.85;18.05;;;3.90;99.90;;;;;;5059644;28;20371;-69
2022/12/04 13:08:19;;;;;;;30.50;17.65;;;3.50;99.90;;;;;;5059370;28;20104;-69
2022/12/04 13:10:56;;;;;;;35.30;19.73;;;3.60;99.90;;;;;;5058579;28;20040;-69
2022/12/04 13:13:25;;;;;;;32.60;19.13;;;3.50;99.90;;;;;;5058420;28;20131;-69
2022/12/04 13:16:11;;;;;;;38.85;20.27;;;3.20;99.90;;;;;;5042178;28;20017;-70